sensor_id;sensor_type;location;lat;lon;timestamp;P1;durP1;ratioP1;P2;durP2;ratioP2
68225;SDS011;55045;49.410;11.030;2024-01-16T00:00:50;10.70;;;9.70;;
68225;SDS011;55045;49.410;11.030;2024-01-16T00:03:53;11.75;;;8.93;;
68225;SDS011;55045;49.410;11.030;2024-01-16T00:06:58;12.30;;;10.27;;
68225;SDS011;55045;49.410;11.030;2024-01-16T00:10:04;12.23;;;10.93;;
68225;SDS011;55045;49.410;11.030;2024-01-16T00:13:09;14.18;;;11.48;;
68225;SDS011;55045;49.410;11.030;2024-01-16T00:16:13;13.93;;;11.88;;
68225;SDS011;55045;49.410;11.030;2024-01-16T00:19:16;10.68;;;9.63;;
68225;SDS011;55045;49.410;11.030;2024-01-16T00:22:21;14.43;;;10.68;;
68225;SDS011;55045;49.410;11.030;2024-01-16T00:25:24;11.23;;;9.70;;
68225;SDS011;55045;49.410;11.030;2024-01-16T00:28:28;11.02;;;9.68;;
68225;SDS011;55045;49.410;11.030;2024-01-16T00:31:31;12.30;;;10.20;;
68225;SDS011;55045;49.410;11.030;2024-01-16T00:34:35;15.30;;;10.55;;
68225;SDS011;55045;49.410;11.030;2024-01-16T00:37:39;10.60;;;9.60;;
68225;SDS011;55045;49.410;11.030;2024-01-16T00:40:43;10.55;;;9.45;;
68225;SDS011;55045;49.410;11.030;2024-01-16T00:43:46;13.70;;;10.27;;
68225;SDS011;55045;49.410;11.030;2024-01-16T00:46:49;12.57;;;10.13;;
68225;SDS011;55045;49.410;11.030;2024-01-16T00:49:53;12.10;;;10.25;;
68225;SDS011;55045;49.410;11.030;2024-01-16T00:52:57;15.05;;;10.20;;
68225;SDS011;55045;49.410;11.030;2024-01-16T00:56:01;12.13;;;10.45;;
68225;SDS011;55045;49.410;11.030;2024-01-16T00:59:04;11.10;;;9.88;;
68225;SDS011;55045;49.410;11.030;2024-01-16T01:02:08;12.52;;;11.25;;
68225;SDS011;55045;49.410;11.030;2024-01-16T01:05:13;12.65;;;11.35;;
68225;SDS011;55045;49.410;11.030;2024-01-16T01:08:18;12.30;;;10.48;;
68225;SDS011;55045;49.410;11.030;2024-01-16T01:11:22;12.75;;;11.45;;
68225;SDS011;55045;49.410;11.030;2024-01-16T01:14:25;12.35;;;11.15;;
68225;SDS011;55045;49.410;11.030;2024-01-16T01:17:31;11.80;;;10.55;;
68225;SDS011;55045;49.410;11.030;2024-01-16T01:20:36;12.35;;;11.15;;
68225;SDS011;55045;49.410;11.030;2024-01-16T01:23:41;16.92;;;12.90;;
68225;SDS011;55045;49.410;11.030;2024-01-16T01:26:45;13.90;;;11.45;;
68225;SDS011;55045;49.410;11.030;2024-01-16T01:29:48;13.27;;;11.80;;
68225;SDS011;55045;49.410;11.030;2024-01-16T01:32:51;12.77;;;10.75;;
68225;SDS011;55045;49.410;11.030;2024-01-16T01:35:55;13.23;;;11.88;;
68225;SDS011;55045;49.410;11.030;2024-01-16T01:39:00;15.85;;;12.02;;
68225;SDS011;55045;49.410;11.030;2024-01-16T01:42:03;12.70;;;11.43;;
68225;SDS011;55045;49.410;11.030;2024-01-16T01:45:07;14.20;;;12.90;;
68225;SDS011;55045;49.410;11.030;2024-01-16T01:48:11;13.32;;;11.93;;
68225;SDS011;55045;49.410;11.030;2024-01-16T01:51:16;14.50;;;11.32;;
68225;SDS011;55045;49.410;11.030;2024-01-16T01:54:22;14.65;;;12.25;;
68225;SDS011;55045;49.410;11.030;2024-01-16T01:57:27;13.57;;;12.27;;
68225;SDS011;55045;49.410;11.030;2024-01-16T02:00:31;13.52;;;12.20;;
68225;SDS011;55045;49.410;11.030;2024-01-16T02:03:55;12.73;;;11.35;;
68225;SDS011;55045;49.410;11.030;2024-01-16T02:07:20;14.27;;;12.88;;
68225;SDS011;55045;49.410;11.030;2024-01-16T02:10:25;12.52;;;10.82;;
68225;SDS011;55045;49.410;11.030;2024-01-16T02:13:28;15.18;;;12.00;;
68225;SDS011;55045;49.410;11.030;2024-01-16T02:16:35;14.73;;;13.38;;
68225;SDS011;55045;49.410;11.030;2024-01-16T02:19:40;12.32;;;11.13;;
68225;SDS011;55045;49.410;11.030;2024-01-16T02:22:44;16.00;;;13.23;;
68225;SDS011;55045;49.410;11.030;2024-01-16T02:25:52;14.90;;;13.18;;
68225;SDS011;55045;49.410;11.030;2024-01-16T02:28:56;13.35;;;12.02;;
68225;SDS011;55045;49.410;11.030;2024-01-16T02:31:59;13.60;;;12.25;;
68225;SDS011;55045;49.410;11.030;2024-01-16T02:35:02;13.25;;;11.90;;
68225;SDS011;55045;49.410;11.030;2024-01-16T02:38:07;13.15;;;11.75;;
68225;SDS011;55045;49.410;11.030;2024-01-16T02:41:12;14.50;;;12.95;;
68225;SDS011;55045;49.410;11.030;2024-01-16T02:44:16;15.35;;;13.18;;
68225;SDS011;55045;49.410;11.030;2024-01-16T02:47:20;14.10;;;12.80;;
68225;SDS011;55045;49.410;11.030;2024-01-16T02:50:23;16.65;;;15.00;;
68225;SDS011;55045;49.410;11.030;2024-01-16T02:53:26;13.68;;;12.35;;
68225;SDS011;55045;49.410;11.030;2024-01-16T02:56:32;14.05;;;12.60;;
68225;SDS011;55045;49.410;11.030;2024-01-16T02:59:35;14.43;;;11.77;;
68225;SDS011;55045;49.410;11.030;2024-01-16T03:02:38;14.57;;;12.90;;
68225;SDS011;55045;49.410;11.030;2024-01-16T03:05:42;15.80;;;12.63;;
68225;SDS011;55045;49.410;11.030;2024-01-16T03:08:45;14.38;;;12.98;;
68225;SDS011;55045;49.410;11.030;2024-01-16T03:11:50;14.85;;;13.35;;
68225;SDS011;55045;49.410;11.030;2024-01-16T03:14:54;15.13;;;13.43;;
68225;SDS011;55045;49.410;11.030;2024-01-16T03:17:57;13.02;;;11.82;;
68225;SDS011;55045;49.410;11.030;2024-01-16T03:21:02;17.13;;;15.35;;
68225;SDS011;55045;49.410;11.030;2024-01-16T03:24:05;14.10;;;12.60;;
68225;SDS011;55045;49.410;11.030;2024-01-16T03:27:10;17.08;;;14.48;;
68225;SDS011;55045;49.410;11.030;2024-01-16T03:30:13;14.43;;;13.02;;
68225;SDS011;55045;49.410;11.030;2024-01-16T03:33:17;16.13;;;13.55;;
68225;SDS011;55045;49.410;11.030;2024-01-16T03:36:21;15.25;;;13.63;;
68225;SDS011;55045;49.410;11.030;2024-01-16T03:39:25;17.02;;;15.23;;
68225;SDS011;55045;49.410;11.030;2024-01-16T03:42:29;15.77;;;14.10;;
68225;SDS011;55045;49.410;11.030;2024-01-16T03:45:32;16.00;;;12.98;;
68225;SDS011;55045;49.410;11.030;2024-01-16T03:48:36;16.98;;;15.20;;
68225;SDS011;55045;49.410;11.030;2024-01-16T03:51:39;16.80;;;14.80;;
68225;SDS011;55045;49.410;11.030;2024-01-16T03:54:44;16.17;;;14.23;;
68225;SDS011;55045;49.410;11.030;2024-01-16T03:57:49;17.20;;;15.30;;
68225;SDS011;55045;49.410;11.030;2024-01-16T04:00:53;16.05;;;14.45;;
68225;SDS011;55045;49.410;11.030;2024-01-16T04:03:56;15.88;;;14.32;;
68225;SDS011;55045;49.410;11.030;2024-01-16T04:07:00;15.40;;;13.98;;
68225;SDS011;55045;49.410;11.030;2024-01-16T04:10:05;17.23;;;14.45;;
68225;SDS011;55045;49.410;11.030;2024-01-16T04:13:11;14.80;;;13.23;;
68225;SDS011;55045;49.410;11.030;2024-01-16T04:16:15;14.75;;;13.35;;
68225;SDS011;55045;49.410;11.030;2024-01-16T04:19:22;16.73;;;12.20;;
68225;SDS011;55045;49.410;11.030;2024-01-16T04:22:43;15.43;;;13.80;;
68225;SDS011;55045;49.410;11.030;2024-01-16T04:26:18;18.13;;;13.15;;
68225;SDS011;55045;49.410;11.030;2024-01-16T04:29:23;19.30;;;14.45;;
68225;SDS011;55045;49.410;11.030;2024-01-16T04:35:14;16.15;;;14.45;;
68225;SDS011;55045;49.410;11.030;2024-01-16T04:38:18;15.65;;;14.02;;
68225;SDS011;55045;49.410;11.030;2024-01-16T04:41:22;16.20;;;14.52;;
68225;SDS011;55045;49.410;11.030;2024-01-16T04:44:25;16.45;;;13.95;;
68225;SDS011;55045;49.410;11.030;2024-01-16T04:47:30;16.50;;;14.82;;
68225;SDS011;55045;49.410;11.030;2024-01-16T04:50:35;16.48;;;14.77;;
68225;SDS011;55045;49.410;11.030;2024-01-16T04:53:39;15.20;;;13.70;;
68225;SDS011;55045;49.410;11.030;2024-01-16T04:56:42;17.48;;;14.90;;
68225;SDS011;55045;49.410;11.030;2024-01-16T04:59:46;20.90;;;18.67;;
68225;SDS011;55045;49.410;11.030;2024-01-16T05:02:49;16.85;;;15.15;;
68225;SDS011;55045;49.410;11.030;2024-01-16T05:05:55;16.52;;;14.52;;
68225;SDS011;55045;49.410;11.030;2024-01-16T05:08:59;19.27;;;16.67;;
68225;SDS011;55045;49.410;11.030;2024-01-16T05:12:03;17.17;;;15.48;;
68225;SDS011;55045;49.410;11.030;2024-01-16T05:15:07;17.05;;;15.35;;
68225;SDS011;55045;49.410;11.030;2024-01-16T05:18:13;16.77;;;15.07;;
68225;SDS011;55045;49.410;11.030;2024-01-16T05:21:20;17.55;;;15.75;;
68225;SDS011;55045;49.410;11.030;2024-01-16T05:24:23;18.83;;;15.18;;
68225;SDS011;55045;49.410;11.030;2024-01-16T05:27:27;17.48;;;15.68;;
68225;SDS011;55045;49.410;11.030;2024-01-16T05:30:30;17.90;;;16.05;;
68225;SDS011;55045;49.410;11.030;2024-01-16T05:33:35;18.83;;;15.95;;
68225;SDS011;55045;49.410;11.030;2024-01-16T05:36:44;20.33;;;16.38;;
68225;SDS011;55045;49.410;11.030;2024-01-16T05:39:47;18.23;;;16.50;;
68225;SDS011;55045;49.410;11.030;2024-01-16T05:42:50;17.95;;;16.10;;
68225;SDS011;55045;49.410;11.030;2024-01-16T05:45:54;18.27;;;16.33;;
68225;SDS011;55045;49.410;11.030;2024-01-16T05:48:57;17.23;;;15.48;;
68225;SDS011;55045;49.410;11.030;2024-01-16T05:52:02;19.95;;;17.30;;
68225;SDS011;55045;49.410;11.030;2024-01-16T05:55:06;20.85;;;17.13;;
68225;SDS011;55045;49.410;11.030;2024-01-16T05:58:10;19.75;;;17.40;;
68225;SDS011;55045;49.410;11.030;2024-01-16T06:01:16;20.77;;;18.55;;
68225;SDS011;55045;49.410;11.030;2024-01-16T06:04:19;19.20;;;17.40;;
68225;SDS011;55045;49.410;11.030;2024-01-16T06:07:24;20.92;;;18.77;;
68225;SDS011;55045;49.410;11.030;2024-01-16T06:10:28;21.98;;;19.85;;
68225;SDS011;55045;49.410;11.030;2024-01-16T06:13:31;21.17;;;18.98;;
68225;SDS011;55045;49.410;11.030;2024-01-16T06:16:38;20.67;;;18.17;;
68225;SDS011;55045;49.410;11.030;2024-01-16T06:19:41;20.67;;;18.38;;
68225;SDS011;55045;49.410;11.030;2024-01-16T06:22:46;20.38;;;18.25;;
68225;SDS011;55045;49.410;11.030;2024-01-16T06:25:49;19.23;;;17.33;;
68225;SDS011;55045;49.410;11.030;2024-01-16T06:28:55;24.35;;;18.52;;
68225;SDS011;55045;49.410;11.030;2024-01-16T06:31:58;19.83;;;17.80;;
68225;SDS011;55045;49.410;11.030;2024-01-16T06:35:01;19.70;;;17.70;;
68225;SDS011;55045;49.410;11.030;2024-01-16T06:38:07;23.90;;;18.25;;
68225;SDS011;55045;49.410;11.030;2024-01-16T06:41:10;19.08;;;17.10;;
68225;SDS011;55045;49.410;11.030;2024-01-16T06:44:14;23.38;;;18.30;;
68225;SDS011;55045;49.410;11.030;2024-01-16T06:47:17;20.25;;;17.45;;
68225;SDS011;55045;49.410;11.030;2024-01-16T06:50:21;21.30;;;18.90;;
68225;SDS011;55045;49.410;11.030;2024-01-16T06:53:25;22.75;;;18.40;;
68225;SDS011;55045;49.410;11.030;2024-01-16T06:56:29;19.33;;;15.15;;
68225;SDS011;55045;49.410;11.030;2024-01-16T06:59:32;19.90;;;16.20;;
68225;SDS011;55045;49.410;11.030;2024-01-16T07:02:35;18.45;;;16.55;;
68225;SDS011;55045;49.410;11.030;2024-01-16T07:14:44;19.25;;;16.40;;
68225;SDS011;55045;49.410;11.030;2024-01-16T07:23:57;20.27;;;18.27;;
68225;SDS011;55045;49.410;11.030;2024-01-16T07:37:49;22.38;;;19.67;;
68225;SDS011;55045;49.410;11.030;2024-01-16T07:50:44;20.45;;;18.23;;
68225;SDS011;55045;49.410;11.030;2024-01-16T07:59:37;19.27;;;17.23;;
68225;SDS011;55045;49.410;11.030;2024-01-16T08:04:35;21.05;;;18.70;;
68225;SDS011;55045;49.410;11.030;2024-01-16T08:09:35;21.40;;;19.05;;
68225;SDS011;55045;49.410;11.030;2024-01-16T08:14:30;27.77;;;20.35;;
68225;SDS011;55045;49.410;11.030;2024-01-16T08:19:02;20.40;;;18.17;;
68225;SDS011;55045;49.410;11.030;2024-01-16T08:23:41;21.15;;;18.60;;
68225;SDS011;55045;49.410;11.030;2024-01-16T08:32:08;19.70;;;15.45;;
68225;SDS011;55045;49.410;11.030;2024-01-16T08:45:14;20.42;;;18.05;;
68225;SDS011;55045;49.410;11.030;2024-01-16T08:49:02;20.23;;;17.27;;
68225;SDS011;55045;49.410;11.030;2024-01-16T08:52:49;21.20;;;17.48;;
68225;SDS011;55045;49.410;11.030;2024-01-16T08:57:19;20.80;;;18.40;;
68225;SDS011;55045;49.410;11.030;2024-01-16T09:00:27;19.98;;;17.00;;
68225;SDS011;55045;49.410;11.030;2024-01-16T09:03:30;17.90;;;15.95;;
68225;SDS011;55045;49.410;11.030;2024-01-16T09:06:35;20.95;;;18.75;;
68225;SDS011;55045;49.410;11.030;2024-01-16T09:09:39;18.20;;;15.52;;
68225;SDS011;55045;49.410;11.030;2024-01-16T09:12:43;18.00;;;15.77;;
68225;SDS011;55045;49.410;11.030;2024-01-16T09:15:47;21.13;;;17.15;;
68225;SDS011;55045;49.410;11.030;2024-01-16T09:18:51;22.00;;;16.38;;
68225;SDS011;55045;49.410;11.030;2024-01-16T09:21:56;19.73;;;15.88;;
68225;SDS011;55045;49.410;11.030;2024-01-16T09:24:59;19.23;;;15.75;;
68225;SDS011;55045;49.410;11.030;2024-01-16T09:28:03;18.88;;;15.85;;
68225;SDS011;55045;49.410;11.030;2024-01-16T09:31:08;18.50;;;16.58;;
68225;SDS011;55045;49.410;11.030;2024-01-16T09:34:11;18.45;;;14.98;;
68225;SDS011;55045;49.410;11.030;2024-01-16T09:37:17;18.70;;;14.80;;
68225;SDS011;55045;49.410;11.030;2024-01-16T09:40:21;16.17;;;14.48;;
68225;SDS011;55045;49.410;11.030;2024-01-16T09:43:25;18.42;;;14.27;;
68225;SDS011;55045;49.410;11.030;2024-01-16T09:46:30;19.25;;;15.38;;
68225;SDS011;55045;49.410;11.030;2024-01-16T09:49:34;20.05;;;13.82;;
68225;SDS011;55045;49.410;11.030;2024-01-16T09:52:39;17.92;;;15.98;;
68225;SDS011;55045;49.410;11.030;2024-01-16T09:55:43;19.67;;;15.50;;
68225;SDS011;55045;49.410;11.030;2024-01-16T09:58:47;17.23;;;15.15;;
68225;SDS011;55045;49.410;11.030;2024-01-16T10:01:51;21.33;;;16.27;;
68225;SDS011;55045;49.410;11.030;2024-01-16T10:04:57;21.02;;;17.85;;
68225;SDS011;55045;49.410;11.030;2024-01-16T10:08:02;16.98;;;15.27;;
68225;SDS011;55045;49.410;11.030;2024-01-16T10:11:05;19.23;;;16.00;;
68225;SDS011;55045;49.410;11.030;2024-01-16T10:14:10;20.52;;;15.77;;
68225;SDS011;55045;49.410;11.030;2024-01-16T10:17:15;22.63;;;18.00;;
68225;SDS011;55045;49.410;11.030;2024-01-16T10:20:31;19.00;;;15.48;;
68225;SDS011;55045;49.410;11.030;2024-01-16T10:23:46;15.57;;;13.82;;
68225;SDS011;55045;49.410;11.030;2024-01-16T10:26:56;21.98;;;17.40;;
68225;SDS011;55045;49.410;11.030;2024-01-16T10:30:02;24.65;;;18.15;;
68225;SDS011;55045;49.410;11.030;2024-01-16T10:35:02;18.77;;;14.98;;
68225;SDS011;55045;49.410;11.030;2024-01-16T10:38:07;14.35;;;12.82;;
68225;SDS011;55045;49.410;11.030;2024-01-16T10:41:13;19.77;;;14.25;;
68225;SDS011;55045;49.410;11.030;2024-01-16T10:44:19;15.77;;;13.05;;
68225;SDS011;55045;49.410;11.030;2024-01-16T10:47:23;13.18;;;11.82;;
68225;SDS011;55045;49.410;11.030;2024-01-16T10:50:36;16.25;;;12.60;;
68225;SDS011;55045;49.410;11.030;2024-01-16T10:53:41;14.23;;;12.70;;
68225;SDS011;55045;49.410;11.030;2024-01-16T10:56:46;12.40;;;10.98;;
68225;SDS011;55045;49.410;11.030;2024-01-16T10:59:52;20.52;;;15.23;;
68225;SDS011;55045;49.410;11.030;2024-01-16T11:03:07;15.95;;;11.43;;
68225;SDS011;55045;49.410;11.030;2024-01-16T11:06:15;19.10;;;11.98;;
68225;SDS011;55045;49.410;11.030;2024-01-16T11:09:21;16.65;;;11.30;;
68225;SDS011;55045;49.410;11.030;2024-01-16T11:12:24;15.68;;;11.73;;
68225;SDS011;55045;49.410;11.030;2024-01-16T11:15:30;18.42;;;12.60;;
68225;SDS011;55045;49.410;11.030;2024-01-16T11:18:34;16.38;;;11.63;;
68225;SDS011;55045;49.410;11.030;2024-01-16T11:21:39;17.25;;;12.55;;
68225;SDS011;55045;49.410;11.030;2024-01-16T11:24:44;15.38;;;10.13;;
68225;SDS011;55045;49.410;11.030;2024-01-16T11:27:48;12.52;;;10.20;;
68225;SDS011;55045;49.410;11.030;2024-01-16T11:30:53;13.32;;;8.88;;
68225;SDS011;55045;49.410;11.030;2024-01-16T11:33:56;12.48;;;9.07;;
68225;SDS011;55045;49.410;11.030;2024-01-16T11:37:03;13.43;;;8.85;;
68225;SDS011;55045;49.410;11.030;2024-01-16T11:43:36;11.30;;;8.32;;
68225;SDS011;55045;49.410;11.030;2024-01-16T11:50:09;12.23;;;8.93;;
68225;SDS011;55045;49.410;11.030;2024-01-16T11:56:48;10.87;;;7.83;;
68225;SDS011;55045;49.410;11.030;2024-01-16T12:00:18;14.05;;;8.18;;
68225;SDS011;55045;49.410;11.030;2024-01-16T12:03:23;12.77;;;7.93;;
68225;SDS011;55045;49.410;11.030;2024-01-16T12:06:36;14.85;;;8.02;;
68225;SDS011;55045;49.410;11.030;2024-01-16T12:09:41;12.05;;;8.23;;
68225;SDS011;55045;49.410;11.030;2024-01-16T12:12:45;10.27;;;7.90;;
68225;SDS011;55045;49.410;11.030;2024-01-16T12:15:58;10.57;;;7.45;;
68225;SDS011;55045;49.410;11.030;2024-01-16T12:19:05;13.05;;;7.40;;
68225;SDS011;55045;49.410;11.030;2024-01-16T12:22:10;13.45;;;8.25;;
68225;SDS011;55045;49.410;11.030;2024-01-16T12:25:19;13.05;;;7.40;;
68225;SDS011;55045;49.410;11.030;2024-01-16T12:28:23;10.23;;;6.90;;
68225;SDS011;55045;49.410;11.030;2024-01-16T12:31:34;9.88;;;7.10;;
68225;SDS011;55045;49.410;11.030;2024-01-16T12:34:45;12.43;;;7.40;;
68225;SDS011;55045;49.410;11.030;2024-01-16T12:37:58;10.98;;;8.35;;
68225;SDS011;55045;49.410;11.030;2024-01-16T12:41:06;10.38;;;7.13;;
68225;SDS011;55045;49.410;11.030;2024-01-16T12:44:12;12.07;;;7.20;;
68225;SDS011;55045;49.410;11.030;2024-01-16T12:47:19;20.88;;;11.07;;
68225;SDS011;55045;49.410;11.030;2024-01-16T12:50:24;12.90;;;6.70;;
68225;SDS011;55045;49.410;11.030;2024-01-16T12:53:29;12.95;;;7.97;;
68225;SDS011;55045;49.410;11.030;2024-01-16T12:56:35;15.55;;;7.63;;
68225;SDS011;55045;49.410;11.030;2024-01-16T12:59:39;11.70;;;7.40;;
68225;SDS011;55045;49.410;11.030;2024-01-16T13:02:48;11.32;;;6.75;;
68225;SDS011;55045;49.410;11.030;2024-01-16T13:05:54;10.15;;;5.80;;
68225;SDS011;55045;49.410;11.030;2024-01-16T13:09:03;10.10;;;6.18;;
68225;SDS011;55045;49.410;11.030;2024-01-16T13:12:20;10.10;;;6.30;;
68225;SDS011;55045;49.410;11.030;2024-01-16T13:15:23;14.13;;;7.68;;
68225;SDS011;55045;49.410;11.030;2024-01-16T13:18:28;24.83;;;13.65;;
68225;SDS011;55045;49.410;11.030;2024-01-16T13:21:32;15.20;;;7.80;;
68225;SDS011;55045;49.410;11.030;2024-01-16T13:24:36;11.68;;;8.45;;
68225;SDS011;55045;49.410;11.030;2024-01-16T13:27:40;18.88;;;9.70;;
68225;SDS011;55045;49.410;11.030;2024-01-16T13:30:44;7.65;;;5.85;;
68225;SDS011;55045;49.410;11.030;2024-01-16T13:33:49;28.10;;;15.65;;
68225;SDS011;55045;49.410;11.030;2024-01-16T13:36:54;15.75;;;10.48;;
68225;SDS011;55045;49.410;11.030;2024-01-16T13:40:17;9.45;;;6.30;;
68225;SDS011;55045;49.410;11.030;2024-01-16T13:43:25;12.87;;;7.50;;
68225;SDS011;55045;49.410;11.030;2024-01-16T13:46:29;9.07;;;6.38;;
68225;SDS011;55045;49.410;11.030;2024-01-16T13:49:37;14.25;;;5.43;;
68225;SDS011;55045;49.410;11.030;2024-01-16T13:52:44;8.82;;;5.13;;
68225;SDS011;55045;49.410;11.030;2024-01-16T13:55:48;9.05;;;4.53;;
68225;SDS011;55045;49.410;11.030;2024-01-16T13:58:53;7.72;;;4.72;;
68225;SDS011;55045;49.410;11.030;2024-01-16T14:01:56;8.07;;;5.28;;
68225;SDS011;55045;49.410;11.030;2024-01-16T14:04:59;21.42;;;7.35;;
68225;SDS011;55045;49.410;11.030;2024-01-16T14:08:03;9.65;;;5.13;;
68225;SDS011;55045;49.410;11.030;2024-01-16T14:11:07;9.98;;;4.78;;
68225;SDS011;55045;49.410;11.030;2024-01-16T14:14:12;9.82;;;6.85;;
68225;SDS011;55045;49.410;11.030;2024-01-16T14:17:15;11.43;;;7.18;;
68225;SDS011;55045;49.410;11.030;2024-01-16T14:20:19;10.52;;;7.22;;
68225;SDS011;55045;49.410;11.030;2024-01-16T14:23:28;10.48;;;6.47;;
68225;SDS011;55045;49.410;11.030;2024-01-16T14:26:31;18.25;;;7.45;;
68225;SDS011;55045;49.410;11.030;2024-01-16T14:29:38;13.43;;;7.50;;
68225;SDS011;55045;49.410;11.030;2024-01-16T14:32:43;13.88;;;5.85;;
68225;SDS011;55045;49.410;11.030;2024-01-16T14:35:47;9.80;;;5.90;;
68225;SDS011;55045;49.410;11.030;2024-01-16T14:38:50;9.82;;;6.03;;
68225;SDS011;55045;49.410;11.030;2024-01-16T14:41:57;20.50;;;11.88;;
68225;SDS011;55045;49.410;11.030;2024-01-16T14:45:03;16.55;;;11.88;;
68225;SDS011;55045;49.410;11.030;2024-01-16T14:48:07;16.00;;;10.25;;
68225;SDS011;55045;49.410;11.030;2024-01-16T14:51:12;35.22;;;19.20;;
68225;SDS011;55045;49.410;11.030;2024-01-16T14:54:16;18.23;;;10.82;;
68225;SDS011;55045;49.410;11.030;2024-01-16T14:57:19;12.88;;;7.90;;
68225;SDS011;55045;49.410;11.030;2024-01-16T15:00:24;13.50;;;6.95;;
68225;SDS011;55045;49.410;11.030;2024-01-16T15:03:29;11.68;;;7.75;;
68225;SDS011;55045;49.410;11.030;2024-01-16T15:06:32;10.15;;;6.95;;
68225;SDS011;55045;49.410;11.030;2024-01-16T15:09:35;12.77;;;8.02;;
68225;SDS011;55045;49.410;11.030;2024-01-16T15:12:39;12.90;;;7.93;;
68225;SDS011;55045;49.410;11.030;2024-01-16T15:15:44;18.70;;;9.88;;
68225;SDS011;55045;49.410;11.030;2024-01-16T15:18:47;14.07;;;8.88;;
68225;SDS011;55045;49.410;11.030;2024-01-16T15:21:51;18.00;;;9.75;;
68225;SDS011;55045;49.410;11.030;2024-01-16T15:24:54;10.30;;;7.10;;
68225;SDS011;55045;49.410;11.030;2024-01-16T15:27:57;14.07;;;8.73;;
68225;SDS011;55045;49.410;11.030;2024-01-16T15:31:02;15.68;;;8.15;;
68225;SDS011;55045;49.410;11.030;2024-01-16T15:34:12;22.02;;;14.25;;
68225;SDS011;55045;49.410;11.030;2024-01-16T15:37:22;16.35;;;11.68;;
68225;SDS011;55045;49.410;11.030;2024-01-16T15:40:25;23.45;;;14.57;;
68225;SDS011;55045;49.410;11.030;2024-01-16T15:43:29;30.27;;;16.25;;
68225;SDS011;55045;49.410;11.030;2024-01-16T15:46:33;26.27;;;14.27;;
68225;SDS011;55045;49.410;11.030;2024-01-16T15:49:39;13.55;;;10.90;;
68225;SDS011;55045;49.410;11.030;2024-01-16T15:52:42;11.52;;;8.90;;
68225;SDS011;55045;49.410;11.030;2024-01-16T15:55:45;18.83;;;9.80;;
68225;SDS011;55045;49.410;11.030;2024-01-16T15:58:49;14.77;;;10.23;;
68225;SDS011;55045;49.410;11.030;2024-01-16T16:01:56;17.08;;;11.35;;
68225;SDS011;55045;49.410;11.030;2024-01-16T16:05:04;11.70;;;9.10;;
68225;SDS011;55045;49.410;11.030;2024-01-16T16:08:09;13.60;;;9.60;;
68225;SDS011;55045;49.410;11.030;2024-01-16T16:11:13;11.55;;;9.35;;
68225;SDS011;55045;49.410;11.030;2024-01-16T16:14:16;14.45;;;9.90;;
68225;SDS011;55045;49.410;11.030;2024-01-16T16:17:22;13.82;;;8.88;;
68225;SDS011;55045;49.410;11.030;2024-01-16T16:20:33;13.52;;;9.70;;
68225;SDS011;55045;49.410;11.030;2024-01-16T16:23:37;14.70;;;11.10;;
68225;SDS011;55045;49.410;11.030;2024-01-16T16:26:40;21.40;;;12.85;;
68225;SDS011;55045;49.410;11.030;2024-01-16T16:29:45;20.60;;;12.00;;
68225;SDS011;55045;49.410;11.030;2024-01-16T16:34:59;17.95;;;13.07;;
68225;SDS011;55045;49.410;11.030;2024-01-16T16:38:02;15.95;;;10.02;;
68225;SDS011;55045;49.410;11.030;2024-01-16T16:41:06;17.63;;;11.13;;
68225;SDS011;55045;49.410;11.030;2024-01-16T16:44:09;17.38;;;11.57;;
68225;SDS011;55045;49.410;11.030;2024-01-16T16:47:12;19.88;;;12.57;;
68225;SDS011;55045;49.410;11.030;2024-01-16T16:50:19;18.23;;;11.70;;
68225;SDS011;55045;49.410;11.030;2024-01-16T16:53:22;13.80;;;10.00;;
68225;SDS011;55045;49.410;11.030;2024-01-16T16:56:33;13.98;;;10.57;;
68225;SDS011;55045;49.410;11.030;2024-01-16T16:59:36;18.77;;;13.02;;
68225;SDS011;55045;49.410;11.030;2024-01-16T17:02:40;15.65;;;11.98;;
68225;SDS011;55045;49.410;11.030;2024-01-16T17:05:45;17.13;;;13.30;;
68225;SDS011;55045;49.410;11.030;2024-01-16T17:08:49;18.75;;;11.45;;
68225;SDS011;55045;49.410;11.030;2024-01-16T17:11:54;15.55;;;12.48;;
68225;SDS011;55045;49.410;11.030;2024-01-16T17:14:58;13.02;;;10.75;;
68225;SDS011;55045;49.410;11.030;2024-01-16T17:18:03;21.20;;;13.90;;
68225;SDS011;55045;49.410;11.030;2024-01-16T17:21:09;22.05;;;15.10;;
68225;SDS011;55045;49.410;11.030;2024-01-16T17:24:15;22.92;;;14.80;;
68225;SDS011;55045;49.410;11.030;2024-01-16T17:27:18;19.27;;;13.65;;
68225;SDS011;55045;49.410;11.030;2024-01-16T17:30:22;19.33;;;16.17;;
68225;SDS011;55045;49.410;11.030;2024-01-16T17:33:26;15.98;;;14.23;;
68225;SDS011;55045;49.410;11.030;2024-01-16T17:36:32;22.17;;;17.55;;
68225;SDS011;55045;49.410;11.030;2024-01-16T17:39:35;32.35;;;19.30;;
68225;SDS011;55045;49.410;11.030;2024-01-16T17:42:39;31.08;;;18.38;;
68225;SDS011;55045;49.410;11.030;2024-01-16T17:45:43;29.17;;;22.25;;
68225;SDS011;55045;49.410;11.030;2024-01-16T17:48:46;30.33;;;22.13;;
68225;SDS011;55045;49.410;11.030;2024-01-16T17:51:51;23.48;;;16.42;;
68225;SDS011;55045;49.410;11.030;2024-01-16T17:54:56;20.50;;;15.82;;
68225;SDS011;55045;49.410;11.030;2024-01-16T17:57:59;18.00;;;15.70;;
68225;SDS011;55045;49.410;11.030;2024-01-16T18:01:03;18.30;;;15.82;;
68225;SDS011;55045;49.410;11.030;2024-01-16T18:04:07;26.15;;;17.83;;
68225;SDS011;55045;49.410;11.030;2024-01-16T18:07:12;23.00;;;19.73;;
68225;SDS011;55045;49.410;11.030;2024-01-16T18:10:17;28.55;;;21.25;;
68225;SDS011;55045;49.410;11.030;2024-01-16T18:13:21;35.92;;;23.90;;
68225;SDS011;55045;49.410;11.030;2024-01-16T18:16:24;33.47;;;22.08;;
68225;SDS011;55045;49.410;11.030;2024-01-16T18:19:29;32.33;;;24.60;;
68225;SDS011;55045;49.410;11.030;2024-01-16T18:22:36;40.17;;;24.65;;
68225;SDS011;55045;49.410;11.030;2024-01-16T18:25:39;35.78;;;27.92;;
68225;SDS011;55045;49.410;11.030;2024-01-16T18:28:43;32.65;;;23.83;;
68225;SDS011;55045;49.410;11.030;2024-01-16T18:31:46;30.10;;;22.70;;
68225;SDS011;55045;49.410;11.030;2024-01-16T18:34:50;33.72;;;22.20;;
68225;SDS011;55045;49.410;11.030;2024-01-16T18:37:56;30.65;;;26.05;;
68225;SDS011;55045;49.410;11.030;2024-01-16T18:41:00;27.65;;;23.25;;
68225;SDS011;55045;49.410;11.030;2024-01-16T18:44:05;32.65;;;25.88;;
68225;SDS011;55045;49.410;11.030;2024-01-16T18:47:14;26.35;;;23.58;;
68225;SDS011;55045;49.410;11.030;2024-01-16T18:50:17;25.77;;;22.52;;
68225;SDS011;55045;49.410;11.030;2024-01-16T18:53:22;29.20;;;24.80;;
68225;SDS011;55045;49.410;11.030;2024-01-16T18:56:27;27.88;;;23.48;;
68225;SDS011;55045;49.410;11.030;2024-01-16T18:59:30;37.78;;;27.70;;
68225;SDS011;55045;49.410;11.030;2024-01-16T19:02:34;35.17;;;26.50;;
68225;SDS011;55045;49.410;11.030;2024-01-16T19:05:37;33.70;;;28.45;;
68225;SDS011;55045;49.410;11.030;2024-01-16T19:08:42;35.35;;;30.02;;
68225;SDS011;55045;49.410;11.030;2024-01-16T19:11:46;39.40;;;31.80;;
68225;SDS011;55045;49.410;11.030;2024-01-16T19:14:51;34.30;;;28.70;;
68225;SDS011;55045;49.410;11.030;2024-01-16T19:17:55;32.38;;;27.55;;